Time;durP1;ratioP1;P1;durP2;ratioP2;P2;SDS_P1;SDS_P2;PMS_P1;PMS_P2;Temp;Humidity;BMP_temperature;BMP_pressure;BME280_temperature;BME280_humidity;BME280_pressure;Samples;Min_cycle;Max_cycle;Signal;HPM_P1;HPM_P2
2024/01/29 00:00:04;;;;;;;0.90;0.90;;;4.10;99.90;;;;;;5157555;27;20046;-69
2024/01/29 00:02:32;;;;;;;2.05;1.20;;;3.80;99.90;;;;;;5158181;27;20066;-69
2024/01/29 00:04:57;;;;;;;1.03;1.00;;;3.70;99.90;;;;;;5157730;27;20130;-68
2024/01/29 00:07:24;;;;;;;1.10;1.00;;;3.70;99.90;;;;;;5157795;27;20123;-69
2024/01/29 00:09:49;;;;;;;0.90;0.90;;;3.80;99.90;;;;;;5157645;27;20086;-68
2024/01/29 00:12:15;;;;;;;0.90;0.90;;;3.80;99.90;;;;;;5157582;27;20275;-69
2024/01/29 00:14:40;;;;;;;1.15;1.05;;;3.90;99.90;;;;;;5157612;27;20090;-69
2024/01/29 00:17:07;;;;;;;1.00;0.90;;;3.90;99.90;;;;;;5157554;27;20046;-69
2024/01/29 00:19:33;;;;;;;1.10;1.00;;;4.00;99.90;;;;;;5157511;27;20090;-68
2024/01/29 00:21:58;;;;;;;1.00;1.00;;;4.10;99.90;;;;;;5157437;27;20065;-68
2024/01/29 00:24:24;;;;;;;0.90;0.90;;;4.20;99.90;;;;;;5157246;27;20042;-69
2024/01/29 00:26:50;;;;;;;2.05;1.88;;;4.40;99.90;;;;;;5157219;27;20467;-70
2024/01/29 00:29:15;;;;;;;0.90;0.90;;;4.20;99.90;;;;;;5157682;27;20094;-69
2024/01/29 00:31:41;;;;;;;0.90;0.90;;;4.60;99.90;;;;;;5157154;27;20074;-69
2024/01/29 00:34:07;;;;;;;1.20;1.10;;;4.60;99.90;;;;;;5157188;27;20043;-68
2024/01/29 00:36:33;;;;;;;1.10;1.00;;;4.70;99.90;;;;;;5157276;27;20046;-68
2024/01/29 00:38:58;;;;;;;1.10;1.00;;;4.70;99.90;;;;;;5157091;27;20386;-68
2024/01/29 00:41:24;;;;;;;1.20;1.10;;;4.80;99.90;;;;;;5156664;27;20038;-69
2024/01/29 00:43:50;;;;;;;0.88;0.88;;;4.80;99.90;;;;;;5156968;27;20129;-68
2024/01/29 00:46:15;;;;;;;0.90;0.90;;;4.80;99.90;;;;;;5156827;27;20047;-68
2024/01/29 00:48:42;;;;;;;0.90;0.90;;;4.90;99.90;;;;;;5157251;27;20122;-69
2024/01/29 00:51:07;;;;;;;0.90;0.90;;;4.90;99.90;;;;;;5156163;27;20058;-68
2024/01/29 00:53:33;;;;;;;0.90;0.90;;;4.80;99.90;;;;;;5156718;27;20047;-68
2024/01/29 00:55:58;;;;;;;0.90;0.90;;;4.80;99.90;;;;;;5156480;27;20046;-68
2024/01/29 00:58:24;;;;;;;0.82;0.82;;;4.80;99.90;;;;;;5156712;27;20095;-68
2024/01/29 01:00:50;;;;;;;0.90;0.90;;;4.70;99.90;;;;;;5156313;27;20045;-68
2024/01/29 01:03:16;;;;;;;1.23;1.13;;;4.70;99.90;;;;;;5156681;27;20045;-68
2024/01/29 01:05:42;;;;;;;0.85;0.85;;;4.70;99.90;;;;;;5156512;27;20129;-69
2024/01/29 01:08:07;;;;;;;8.60;4.03;;;4.60;99.90;;;;;;5156567;27;20095;-68
2024/01/29 01:10:33;;;;;;;0.90;0.90;;;4.60;99.90;;;;;;5156185;27;20049;-68
2024/01/29 01:12:59;;;;;;;0.80;0.80;;;4.50;99.90;;;;;;5156889;27;20046;-68
2024/01/29 01:15:25;;;;;;;0.90;0.90;;;4.40;99.90;;;;;;5156249;27;20082;-69
2024/01/29 01:17:50;;;;;;;0.90;0.90;;;5.00;99.90;;;;;;5137726;27;20061;-69
2024/01/29 01:20:16;;;;;;;0.90;0.90;;;4.40;99.90;;;;;;5156284;27;20038;-69
2024/01/29 01:22:42;;;;;;;2.67;2.47;;;4.30;99.90;;;;;;5156332;27;20038;-68
2024/01/29 01:25:08;;;;;;;0.90;0.90;;;4.30;99.90;;;;;;5155826;27;20042;-69
2024/01/29 01:27:33;;;;;;;0.90;0.90;;;4.60;99.90;;;;;;5155960;27;20446;-68
2024/01/29 01:29:59;;;;;;;1.08;0.98;;;4.20;99.90;;;;;;5156490;27;20069;-69
2024/01/29 01:32:25;;;;;;;0.90;0.90;;;4.20;99.90;;;;;;5156433;27;20485;-68
2024/01/29 01:34:51;;;;;;;2.95;2.35;;;4.20;99.90;;;;;;5156115;27;20120;-68
2024/01/29 01:37:17;;;;;;;0.90;0.90;;;4.20;99.90;;;;;;5155920;27;20451;-68
2024/01/29 01:39:42;;;;;;;0.98;0.90;;;4.30;99.90;;;;;;5155845;27;20082;-69
2024/01/29 01:42:08;;;;;;;1.00;1.00;;;4.30;99.90;;;;;;5155819;27;20092;-68
2024/01/29 01:44:34;;;;;;;1.35;1.25;;;4.40;99.90;;;;;;5137702;27;20471;-68
2024/01/29 01:47:00;;;;;;;0.90;0.90;;;4.40;99.90;;;;;;5155684;27;20034;-68
2024/01/29 01:49:26;;;;;;;0.90;0.90;;;4.40;99.90;;;;;;5137558;27;20107;-67
2024/01/29 01:51:52;;;;;;;1.38;1.27;;;4.50;99.90;;;;;;5155886;27;20478;-68
2024/01/29 01:54:18;;;;;;;0.90;0.90;;;4.50;99.90;;;;;;5155895;27;20061;-68
2024/01/29 01:56:45;;;;;;;0.90;0.90;;;4.50;99.90;;;;;;5155564;27;20521;-67
2024/01/29 01:59:12;;;;;;;0.90;0.90;;;4.50;99.90;;;;;;5155587;27;20067;-67
2024/01/29 02:01:38;;;;;;;1.10;1.00;;;4.50;99.90;;;;;;5156105;27;20039;-68
2024/01/29 02:04:04;;;;;;;0.90;0.90;;;4.50;99.90;;;;;;5154839;27;20383;-67
2024/01/29 02:06:29;;;;;;;1.00;1.00;;;4.90;99.90;;;;;;5155172;27;20064;-68
2024/01/29 02:08:55;;;;;;;0.90;0.90;;;4.50;99.90;;;;;;5155499;27;20038;-68
2024/01/29 02:11:21;;;;;;;1.33;1.23;;;4.50;99.90;;;;;;5155435;27;20509;-67
2024/01/29 02:13:47;;;;;;;1.10;1.00;;;4.50;99.90;;;;;;5155443;27;20043;-67
2024/01/29 02:16:12;;;;;;;1.00;0.90;;;4.50;99.90;;;;;;5155406;27;20375;-67
2024/01/29 02:18:38;;;;;;;0.90;0.90;;;4.50;99.90;;;;;;5155403;27;20092;-67
2024/01/29 02:21:04;;;;;;;0.90;0.90;;;4.50;99.90;;;;;;5155321;27;20065;-68
2024/01/29 02:23:29;;;;;;;0.90;0.90;;;4.50;99.90;;;;;;5155351;27;20050;-68
2024/01/29 02:25:55;;;;;;;0.90;0.90;;;4.50;99.90;;;;;;5155139;27;20390;-68
2024/01/29 02:28:23;;;;;;;0.90;0.90;;;4.40;99.90;;;;;;5155255;27;20038;-68
2024/01/29 02:30:49;;;;;;;0.90;0.90;;;4.40;99.90;;;;;;5155258;27;20099;-67
2024/01/29 02:33:15;;;;;;;0.90;0.90;;;4.70;99.90;;;;;;5155211;27;20046;-67
2024/01/29 02:35:40;;;;;;;1.10;1.00;;;4.30;99.90;;;;;;5155249;27;20478;-68
2024/01/29 02:38:06;;;;;;;1.05;0.98;;;4.30;99.90;;;;;;5155256;27;20126;-68
2024/01/29 02:40:32;;;;;;;1.48;1.38;;;4.30;99.90;;;;;;5155045;27;20035;-68
2024/01/29 02:42:57;;;;;;;0.90;0.90;;;4.20;99.90;;;;;;5155061;27;20083;-68
2024/01/29 02:45:23;;;;;;;0.90;0.90;;;4.20;99.90;;;;;;5155467;27;20035;-68
2024/01/29 02:47:48;;;;;;;0.90;0.90;;;4.10;99.90;;;;;;5155018;27;20039;-68
2024/01/29 02:50:14;;;;;;;0.90;0.90;;;4.10;99.90;;;;;;5154924;27;20578;-68
2024/01/29 02:52:39;;;;;;;0.90;0.90;;;4.00;99.90;;;;;;5154685;27;20146;-68
2024/01/29 02:55:05;;;;;;;0.98;0.98;;;3.90;99.90;;;;;;5155034;27;20508;-68
2024/01/29 02:57:31;;;;;;;0.90;0.90;;;3.90;99.90;;;;;;5154963;27;20039;-67
2024/01/29 02:59:56;;;;;;;1.10;1.00;;;3.80;99.90;;;;;;5154990;27;20043;-68
2024/01/29 03:02:22;;;;;;;1.08;0.98;;;3.70;99.90;;;;;;5155011;27;20474;-68
2024/01/29 03:04:48;;;;;;;0.90;0.90;;;3.70;99.90;;;;;;5154621;27;20043;-68
2024/01/29 03:07:13;;;;;;;1.10;1.00;;;3.70;99.90;;;;;;5155085;27;20043;-67
2024/01/29 03:09:39;;;;;;;0.90;0.90;;;3.60;99.90;;;;;;5154847;27;20130;-68
2024/01/29 03:12:05;;;;;;;1.30;1.25;;;3.60;99.90;;;;;;5154686;27;20046;-68
2024/01/29 03:14:30;;;;;;;1.27;1.17;;;3.60;99.90;;;;;;5155139;27;20038;-67
2024/01/29 03:16:56;;;;;;;1.10;1.00;;;3.50;99.90;;;;;;5140165;27;20042;-67
2024/01/29 03:19:22;;;;;;;0.90;0.90;;;3.50;99.90;;;;;;5158660;27;20045;-67
2024/01/29 03:21:47;;;;;;;0.90;0.90;;;3.50;99.90;;;;;;5158781;27;20583;-68
2024/01/29 03:24:13;;;;;;;1.08;0.98;;;3.40;99.90;;;;;;5158567;27;20045;-67
2024/01/29 03:26:39;;;;;;;0.90;0.90;;;3.40;99.90;;;;;;5158430;27;20049;-68
2024/01/29 03:29:04;;;;;;;0.90;0.90;;;3.40;99.90;;;;;;5158506;27;20046;-68
2024/01/29 03:31:30;;;;;;;1.10;1.00;;;3.70;99.90;;;;;;5158439;27;20118;-67
2024/01/29 03:33:55;;;;;;;1.10;1.00;;;3.30;99.90;;;;;;5140537;27;20051;-68
2024/01/29 03:36:21;;;;;;;0.90;0.90;;;3.30;99.90;;;;;;5140069;27;20050;-67
2024/01/29 03:38:47;;;;;;;1.10;1.00;;;3.20;99.90;;;;;;5158307;27;20061;-67
2024/01/29 03:41:13;;;;;;;1.10;1.00;;;3.20;99.90;;;;;;5158212;27;20089;-67
2024/01/29 03:43:38;;;;;;;1.10;1.00;;;3.20;99.90;;;;;;5158181;27;20050;-67
2024/01/29 03:46:04;;;;;;;2.38;2.17;;;3.10;99.90;;;;;;5158244;27;20557;-67
2024/01/29 03:48:30;;;;;;;0.98;0.98;;;3.10;99.90;;;;;;5158140;27;20091;-67
2024/01/29 03:50:55;;;;;;;0.85;0.85;;;3.10;99.90;;;;;;5157789;27;20042;-67
2024/01/29 03:53:21;;;;;;;1.10;1.00;;;3.00;99.90;;;;;;5158150;27;20046;-67
2024/01/29 03:55:47;;;;;;;0.90;0.90;;;3.00;99.90;;;;;;5157794;27;20046;-67
2024/01/29 03:58:13;;;;;;;1.10;1.00;;;2.90;99.90;;;;;;5157956;27;20039;-67
2024/01/29 04:00:39;;;;;;;1.10;1.00;;;2.90;99.90;;;;;;5139771;27;20125;-67
2024/01/29 04:03:06;;;;;;;1.10;1.00;;;2.90;99.90;;;;;;5158033;27;20122;-68
2024/01/29 04:05:32;;;;;;;0.90;0.90;;;2.90;99.90;;;;;;5157697;27;20082;-67
2024/01/29 04:07:57;;;;;;;0.90;0.90;;;2.80;99.90;;;;;;5158032;27;20078;-67
2024/01/29 04:10:23;;;;;;;1.10;1.00;;;2.80;99.90;;;;;;5138991;27;20073;-67
2024/01/29 04:12:48;;;;;;;0.98;0.90;;;3.30;99.90;;;;;;5157622;27;20042;-67
2024/01/29 04:15:14;;;;;;;0.90;0.90;;;2.80;99.90;;;;;;5139506;27;20050;-67
2024/01/29 04:17:40;;;;;;;1.35;1.15;;;2.70;99.90;;;;;;5157946;27;20047;-67
2024/01/29 04:20:06;;;;;;;1.10;1.00;;;2.70;99.90;;;;;;5157379;27;20050;-68
2024/01/29 04:22:33;;;;;;;0.90;0.90;;;2.70;99.90;;;;;;5157375;27;20050;-68
2024/01/29 04:24:59;;;;;;;0.93;0.93;;;2.70;99.90;;;;;;5157282;27;20039;-67
2024/01/29 04:27:25;;;;;;;1.10;1.00;;;2.70;99.90;;;;;;5157132;27;20055;-67
2024/01/29 04:29:51;;;;;;;0.90;0.90;;;2.70;99.90;;;;;;5157022;27;20163;-67
2024/01/29 04:32:16;;;;;;;0.90;0.90;;;2.70;99.90;;;;;;5157518;27;20047;-67
2024/01/29 04:34:42;;;;;;;1.42;1.33;;;2.80;99.90;;;;;;5157455;27;20390;-68
2024/01/29 04:37:07;;;;;;;0.90;0.90;;;2.80;99.90;;;;;;5157082;27;20039;-67
2024/01/29 04:39:33;;;;;;;0.90;0.90;;;2.80;99.90;;;;;;5156905;27;20043;-67
2024/01/29 04:41:59;;;;;;;1.10;1.00;;;2.80;99.90;;;;;;5157034;27;20042;-67
2024/01/29 04:44:25;;;;;;;1.10;1.00;;;2.80;99.90;;;;;;5157564;27;20095;-67
2024/01/29 04:46:50;;;;;;;1.53;1.43;;;2.80;99.90;;;;;;5156667;27;20490;-67
2024/01/29 04:49:16;;;;;;;10.73;4.60;;;2.90;99.90;;;;;;5156488;27;20126;-67
2024/01/29 04:51:41;;;;;;;1.20;1.10;;;2.90;99.90;;;;;;5156871;27;20534;-68
2024/01/29 04:54:07;;;;;;;1.10;1.00;;;2.90;99.90;;;;;;5156698;27;20034;-67
2024/01/29 04:56:32;;;;;;;1.10;1.00;;;2.90;99.90;;;;;;5156748;27;20041;-68
2024/01/29 04:58:58;;;;;;;1.70;1.60;;;2.90;99.90;;;;;;5156800;27;20506;-68
2024/01/29 05:01:24;;;;;;;1.10;1.00;;;2.90;99.90;;;;;;5156737;27;20213;-68
2024/01/29 05:03:51;;;;;;;1.30;1.20;;;2.90;99.90;;;;;;5156610;27;20051;-68
2024/01/29 05:06:17;;;;;;;;;;;2.90;99.90;;;;;;5121185;27;20042;-68
2024/01/29 05:08:42;;;;;;;1.00;1.00;;;2.90;99.90;;;;;;5156192;27;19925;-67
2024/01/29 05:11:08;;;;;;;1.10;1.00;;;2.90;99.90;;;;;;5156351;27;20039;-68
2024/01/29 05:13:33;;;;;;;1.10;1.00;;;2.90;99.90;;;;;;5157009;27;20502;-67
2024/01/29 05:15:59;;;;;;;1.35;1.25;;;2.80;99.90;;;;;;5156558;27;20045;-67
2024/01/29 05:18:25;;;;;;;1.30;1.20;;;2.90;99.90;;;;;;5156027;27;20103;-67
2024/01/29 05:20:51;;;;;;;0.90;0.90;;;2.90;99.90;;;;;;5138138;27;20106;-68
2024/01/29 05:23:16;;;;;;;1.20;1.10;;;2.80;99.90;;;;;;5156132;27;20043;-68
2024/01/29 05:25:44;;;;;;;1.10;1.00;;;2.80;99.90;;;;;;5156158;27;20122;-67
2024/01/29 05:28:09;;;;;;;1.48;1.38;;;2.80;99.90;;;;;;5156053;27;20091;-68
2024/01/29 05:30:35;;;;;;;0.90;0.90;;;2.80;99.90;;;;;;5155983;27;20043;-67
2024/01/29 05:33:00;;;;;;;0.98;0.98;;;2.80;99.90;;;;;;5156371;27;20037;-67
2024/01/29 05:35:26;;;;;;;1.52;1.42;;;2.80;99.90;;;;;;5156048;27;20402;-68
2024/01/29 05:37:52;;;;;;;1.20;1.10;;;3.10;99.90;;;;;;5155842;27;20100;-67
2024/01/29 05:40:17;;;;;;;1.10;1.00;;;2.90;99.90;;;;;;5155963;27;20050;-68
2024/01/29 05:42:43;;;;;;;1.10;1.00;;;2.90;99.90;;;;;;5137511;27;20042;-68
2024/01/29 05:45:09;;;;;;;0.90;0.90;;;2.90;99.90;;;;;;5156159;27;20359;-67
2024/01/29 05:47:34;;;;;;;1.00;0.93;;;2.90;99.90;;;;;;5154316;27;20043;-67
2024/01/29 05:50:01;;;;;;;0.90;0.90;;;3.00;99.90;;;;;;5154110;27;20043;-67
2024/01/29 05:52:26;;;;;;;1.10;1.00;;;3.00;99.90;;;;;;5155638;27;20098;-69
2024/01/29 05:54:52;;;;;;;1.08;0.98;;;3.00;99.90;;;;;;5155590;27;20046;-67
2024/01/29 05:57:18;;;;;;;1.20;1.10;;;3.10;99.90;;;;;;5152525;27;20030;-68
2024/01/29 05:59:43;;;;;;;0.90;0.90;;;3.10;99.90;;;;;;5154790;27;20042;-67
2024/01/29 06:02:09;;;;;;;0.90;0.90;;;3.10;99.90;;;;;;5154400;27;20493;-67
2024/01/29 06:04:34;;;;;;;0.90;0.90;;;3.10;99.90;;;;;;5154523;27;20129;-68
2024/01/29 06:07:00;;;;;;;1.77;1.67;;;3.10;99.90;;;;;;5154415;27;20034;-68
2024/01/29 06:09:26;;;;;;;1.08;0.98;;;3.10;99.90;;;;;;5154020;27;20103;-71
2024/01/29 06:11:53;;;;;;;0.93;0.90;;;3.10;99.90;;;;;;5154786;27;20054;-70
2024/01/29 06:14:18;;;;;;;;;;;3.10;99.90;;;;;;5155366;27;20037;-68
2024/01/29 06:16:44;;;;;;;0.90;0.90;;;3.10;99.90;;;;;;5155012;27;20009;-70
2024/01/29 06:19:14;;;;;;;1.00;0.90;;;3.10;99.90;;;;;;5155069;27;20103;-68
2024/01/29 06:21:43;;;;;;;0.90;0.90;;;3.10;99.90;;;;;;5155401;27;20050;-70
2024/01/29 06:24:09;;;;;;;0.90;0.90;;;3.30;99.90;;;;;;5155325;27;20042;-68
2024/01/29 06:26:35;;;;;;;1.05;0.95;;;3.10;99.90;;;;;;5154931;27;20543;-69
2024/01/29 06:29:01;;;;;;;0.90;0.90;;;3.10;99.90;;;;;;5137070;27;20039;-68
2024/01/29 06:31:26;;;;;;;1.10;1.00;;;3.00;99.90;;;;;;5155194;27;20833;-68
2024/01/29 06:33:55;;;;;;;1.10;1.00;;;3.10;99.90;;;;;;5155277;27;20043;-69
2024/01/29 06:36:22;;;;;;;0.90;0.90;;;3.10;99.90;;;;;;5155227;27;20051;-68
2024/01/29 06:38:47;;;;;;;1.00;1.00;;;3.00;99.90;;;;;;5155129;27;20042;-69
2024/01/29 06:41:23;;;;;;;0.90;0.90;;;3.10;99.90;;;;;;5155161;27;20439;-68
2024/01/29 06:43:49;;;;;;;0.90;0.90;;;3.00;99.90;;;;;;5154900;27;20398;-67
2024/01/29 06:46:15;;;;;;;1.20;1.10;;;3.00;99.90;;;;;;5155040;27;20050;-70
2024/01/29 06:48:41;;;;;;;1.25;1.15;;;3.00;99.90;;;;;;5155085;27;20094;-67
2024/01/29 06:51:06;;;;;;;0.90;0.90;;;3.00;99.90;;;;;;5157502;27;20098;-73
2024/01/29 06:53:34;;;;;;;0.90;0.90;;;3.00;99.90;;;;;;5158979;27;20351;-70
2024/01/29 06:56:02;;;;;;;0.90;0.90;;;3.00;99.90;;;;;;5159356;27;20493;-70
2024/01/29 06:58:28;;;;;;;1.90;1.63;;;3.00;99.90;;;;;;5158985;27;20491;-70
2024/01/29 07:00:57;;;;;;;1.50;1.40;;;3.10;99.90;;;;;;5159317;27;20038;-68
2024/01/29 07:03:22;;;;;;;1.23;1.13;;;3.10;99.90;;;;;;5158939;27;20125;-68
2024/01/29 07:05:48;;;;;;;1.00;1.00;;;3.10;99.90;;;;;;5158949;27;20070;-71
2024/01/29 07:08:14;;;;;;;1.08;1.00;;;3.10;99.90;;;;;;5158550;27;20066;-76
2024/01/29 07:10:40;;;;;;;1.23;1.13;;;3.10;99.90;;;;;;5158684;27;20543;-72
2024/01/29 07:13:05;;;;;;;1.10;1.00;;;3.20;99.90;;;;;;5158765;27;20114;-68
2024/01/29 07:15:31;;;;;;;0.90;0.90;;;3.20;99.90;;;;;;5158548;27;20535;-68
2024/01/29 07:17:57;;;;;;;1.10;1.00;;;3.20;99.90;;;;;;5158784;27;20049;-71
2024/01/29 07:20:23;;;;;;;0.90;0.90;;;3.30;99.90;;;;;;5158650;27;20492;-68
2024/01/29 07:22:48;;;;;;;0.90;0.90;;;3.30;99.90;;;;;;5159135;27;20038;-67
2024/01/29 07:25:14;;;;;;;1.10;1.00;;;3.80;99.90;;;;;;5158696;27;20042;-68
2024/01/29 07:27:39;;;;;;;0.90;0.90;;;3.30;99.90;;;;;;5158389;27;20051;-69
2024/01/29 07:30:06;;;;;;;1.10;1.00;;;3.30;99.90;;;;;;5140106;27;20039;-68
2024/01/29 07:32:31;;;;;;;1.23;1.13;;;3.40;99.90;;;;;;5140030;27;20057;-68
2024/01/29 07:35:00;;;;;;;2.92;2.45;;;3.40;99.90;;;;;;5158456;27;20474;-68
2024/01/29 07:37:30;;;;;;;0.90;0.90;;;3.40;99.90;;;;;;5157784;27;20098;-68
2024/01/29 07:39:56;;;;;;;0.88;0.88;;;3.40;99.90;;;;;;5157279;27;20049;-67
2024/01/29 07:42:22;;;;;;;1.00;0.90;;;3.40;99.90;;;;;;5157920;27;20191;-69
2024/01/29 07:44:48;;;;;;;1.30;1.20;;;3.50;99.90;;;;;;5158299;27;20489;-68
2024/01/29 07:47:14;;;;;;;53.77;4.93;;;3.50;99.90;;;;;;5157746;27;20046;-68
2024/01/29 07:49:40;;;;;;;1.02;1.00;;;3.50;99.90;;;;;;5158111;27;20508;-73
2024/01/29 07:52:05;;;;;;;0.93;0.93;;;3.50;99.90;;;;;;5158124;27;20051;-69
2024/01/29 07:54:31;;;;;;;0.98;0.98;;;3.60;99.90;;;;;;5157905;27;20046;-68
2024/01/29 07:56:57;;;;;;;1.10;1.00;;;3.60;99.90;;;;;;5157889;27;20081;-68
2024/01/29 07:59:23;;;;;;;0.90;0.90;;;3.70;99.90;;;;;;5139464;27;20043;-69
2024/01/29 08:01:49;;;;;;;0.90;0.90;;;3.70;99.90;;;;;;5156615;27;20093;-68
2024/01/29 08:04:14;;;;;;;1.13;1.02;;;4.70;99.90;;;;;;5153442;27;20122;-69
2024/01/29 08:06:40;;;;;;;1.15;1.10;;;4.40;99.90;;;;;;5149759;27;20034;-70
2024/01/29 08:09:06;;;;;;;0.90;0.90;;;3.90;99.90;;;;;;5156996;27;20537;-71
2024/01/29 08:11:32;;;;;;;0.90;0.90;;;3.90;99.90;;;;;;5157650;27;20046;-70
2024/01/29 08:13:58;;;;;;;1.05;0.95;;;3.90;99.90;;;;;;5139497;27;20121;-70
2024/01/29 08:16:24;;;;;;;0.90;0.90;;;4.00;99.90;;;;;;5157447;27;20051;-69
2024/01/29 08:18:50;;;;;;;1.10;1.00;;;4.10;99.90;;;;;;5156735;27;20045;-68
2024/01/29 08:21:16;;;;;;;1.10;1.00;;;4.10;99.90;;;;;;5157114;27;20038;-68
2024/01/29 08:23:42;;;;;;;0.82;0.82;;;4.20;99.90;;;;;;5155198;27;20035;-71
2024/01/29 08:26:08;;;;;;;0.95;0.95;;;4.20;99.90;;;;;;5156028;27;20175;-70
2024/01/29 08:28:34;;;;;;;1.25;1.15;;;4.20;99.90;;;;;;5155265;27;20046;-72
2024/01/29 08:31:00;;;;;;;0.80;0.80;;;4.30;99.90;;;;;;5154897;27;20042;-71
2024/01/29 08:33:27;;;;;;;1.10;1.00;;;4.30;99.90;;;;;;5154959;27;20042;-71
2024/01/29 08:35:53;;;;;;;0.90;0.90;;;4.30;99.90;;;;;;5154712;27;20286;-72
2024/01/29 08:38:19;;;;;;;0.90;0.90;;;4.40;99.90;;;;;;5154852;27;20389;-74
2024/01/29 08:40:45;;;;;;;0.90;0.90;;;4.50;99.90;;;;;;5154969;27;20138;-71
2024/01/29 08:43:10;;;;;;;0.90;0.90;;;4.40;99.90;;;;;;5156539;27;20129;-71
2024/01/29 08:45:36;;;;;;;1.10;1.00;;;5.40;99.90;;;;;;5157014;27;20065;-71
2024/01/29 08:48:06;;;;;;;1.70;1.60;;;4.50;99.90;;;;;;5156916;27;20035;-71
2024/01/29 08:50:32;;;;;;;0.90;0.90;;;4.60;99.90;;;;;;5156910;27;20049;-75
2024/01/29 08:52:58;;;;;;;0.90;0.90;;;5.20;99.90;;;;;;5157380;27;20042;-73
2024/01/29 08:55:24;;;;;;;0.93;0.93;;;4.70;99.90;;;;;;5156761;27;20470;-71
2024/01/29 08:57:49;;;;;;;0.90;0.90;;;4.80;99.90;;;;;;5138227;27;20039;-71
2024/01/29 09:00:15;;;;;;;9.13;2.15;;;4.80;99.90;;;;;;5156818;27;20046;-70
2024/01/29 09:02:41;;;;;;;0.90;0.90;;;4.90;99.90;;;;;;5156707;27;20182;-71
2024/01/29 09:05:08;;;;;;;0.90;0.90;;;4.90;99.90;;;;;;5156636;27;20050;-70
2024/01/29 09:07:34;;;;;;;;;;;5.00;99.90;;;;;;5156880;27;20043;-70
2024/01/29 09:09:59;;;;;;;1.98;1.70;;;5.10;99.90;;;;;;5156618;27;20271;-71
2024/01/29 09:12:25;;;;;;;0.80;0.80;;;5.20;99.90;;;;;;5156211;27;20042;-70
2024/01/29 09:14:50;;;;;;;0.90;0.90;;;5.20;99.90;;;;;;5156421;27;20047;-76
2024/01/29 09:17:16;;;;;;;1.00;1.00;;;5.30;99.90;;;;;;5156368;27;20037;-70
2024/01/29 09:19:45;;;;;;;1.10;1.00;;;5.30;99.90;;;;;;5156359;27;20496;-72
2024/01/29 09:22:11;;;;;;;0.90;0.90;;;5.40;99.90;;;;;;5156308;27;20043;-70
2024/01/29 09:24:36;;;;;;;0.80;0.80;;;5.40;99.90;;;;;;5156670;27;20087;-70
2024/01/29 09:27:02;;;;;;;1.13;1.05;;;5.40;99.90;;;;;;5156183;27;20035;-70
2024/01/29 09:29:28;;;;;;;0.85;0.85;;;5.40;99.90;;;;;;5156275;27;20509;-71
2024/01/29 09:31:53;;;;;;;0.90;0.90;;;5.50;99.90;;;;;;5156235;27;20078;-74
2024/01/29 09:34:20;;;;;;;1.00;1.00;;;5.50;99.90;;;;;;5155930;27;20049;-75
2024/01/29 09:36:46;;;;;;;0.90;0.90;;;5.60;99.90;;;;;;5155886;27;20049;-68
2024/01/29 09:39:12;;;;;;;0.85;0.85;;;5.60;99.90;;;;;;5156647;27;20047;-71
2024/01/29 09:41:42;;;;;;;0.80;0.80;;;5.60;99.90;;;;;;5155787;27;20046;-71
2024/01/29 09:44:09;;;;;;;1.35;1.20;;;5.70;99.90;;;;;;5156296;27;20398;-69
2024/01/29 09:46:39;;;;;;;;;;;5.70;99.90;;;;;;5156190;27;20095;-69
2024/01/29 09:49:06;;;;;;;1.00;1.00;;;5.80;99.90;;;;;;5155802;27;19929;-69
2024/01/29 09:51:35;;;;;;;0.80;0.80;;;5.80;99.90;;;;;;5155599;27;20483;-70
2024/01/29 09:54:02;;;;;;;0.70;0.70;;;5.80;99.90;;;;;;5155349;27;20502;-70
2024/01/29 09:56:31;;;;;;;0.90;0.90;;;5.90;99.90;;;;;;5155957;27;20381;-70
2024/01/29 09:58:56;;;;;;;0.80;0.80;;;6.00;99.90;;;;;;5155673;27;20043;-70
2024/01/29 10:01:26;;;;;;;0.70;0.70;;;6.00;99.90;;;;;;5152471;27;20110;-74
2024/01/29 10:03:52;;;;;;;0.80;0.80;;;6.00;99.90;;;;;;5137024;27;20368;-69
2024/01/29 10:06:17;;;;;;;0.80;0.80;;;6.10;99.90;;;;;;5141440;27;20050;-75
2024/01/29 10:08:44;;;;;;;0.90;0.90;;;6.50;99.90;;;;;;5154706;27;20042;-73
2024/01/29 10:11:11;;;;;;;1.27;1.05;;;6.20;99.90;;;;;;5154991;27;20081;-73
2024/01/29 10:13:37;;;;;;;1.50;1.23;;;6.30;99.90;;;;;;5154538;27;20035;-71
2024/01/29 10:16:02;;;;;;;1.10;1.02;;;6.60;99.90;;;;;;5151466;27;20034;-70
2024/01/29 10:18:30;;;;;;;1.20;1.10;;;6.40;99.90;;;;;;5134745;27;20043;-71
2024/01/29 10:21:04;;;;;;;0.80;0.80;;;6.70;99.90;;;;;;5134434;27;20040;-73
2024/01/29 10:23:30;;;;;;;0.98;0.98;;;6.50;99.90;;;;;;5134571;28;20042;-73
2024/01/29 10:26:00;;;;;;;1.10;1.05;;;6.60;99.90;;;;;;5133839;27;20126;-72
2024/01/29 10:28:28;;;;;;;1.70;1.60;;;6.60;99.90;;;;;;5116338;28;20047;-69
2024/01/29 10:30:55;;;;;;;1.00;1.00;;;6.70;99.90;;;;;;5134521;28;20087;-70
2024/01/29 10:33:24;;;;;;;0.80;0.80;;;6.70;99.90;;;;;;5144265;27;20051;-70
2024/01/29 10:35:50;;;;;;;0.80;0.80;;;6.70;99.90;;;;;;5153495;27;20043;-71
2024/01/29 10:38:22;;;;;;;0.80;0.80;;;6.70;99.90;;;;;;5153325;27;20526;-72
2024/01/29 10:40:49;;;;;;;1.08;1.08;;;6.80;99.90;;;;;;5154529;27;20042;-71
2024/01/29 10:43:21;;;;;;;0.88;0.88;;;6.80;99.90;;;;;;5151480;27;20497;-73
2024/01/29 10:45:53;;;;;;;0.80;0.80;;;6.80;99.90;;;;;;5144763;27;20043;-73
2024/01/29 10:48:23;;;;;;;0.95;0.95;;;6.80;99.90;;;;;;5144004;27;20038;-71
2024/01/29 10:50:50;;;;;;;0.80;0.80;;;6.90;99.90;;;;;;5155136;27;20129;-72
2024/01/29 10:53:17;;;;;;;1.00;1.00;;;6.90;99.90;;;;;;5155118;27;20046;-74
2024/01/29 10:55:50;;;;;;;0.90;0.90;;;7.00;99.90;;;;;;5158128;27;20049;-70
2024/01/29 10:58:17;;;;;;;0.80;0.80;;;7.00;99.90;;;;;;5158292;27;20125;-74
2024/01/29 11:00:44;;;;;;;0.90;0.90;;;7.70;99.90;;;;;;5146556;27;20039;-74
2024/01/29 11:03:12;;;;;;;0.80;0.80;;;7.80;99.90;;;;;;5155008;27;20038;-74
2024/01/29 11:05:40;;;;;;;1.98;1.88;;;7.10;99.90;;;;;;5154946;27;20493;-73
2024/01/29 11:08:11;;;;;;;0.77;0.77;;;7.00;99.90;;;;;;5154666;27;20035;-73
2024/01/29 11:10:37;;;;;;;0.80;0.80;;;7.10;99.90;;;;;;5154703;27;20043;-71
2024/01/29 11:13:05;;;;;;;0.80;0.80;;;7.10;99.90;;;;;;5134173;28;20039;-75
2024/01/29 11:15:32;;;;;;;0.90;0.90;;;7.10;99.90;;;;;;5134221;28;20039;-73
2024/01/29 11:17:57;;;;;;;0.80;0.80;;;7.60;99.90;;;;;;5134123;28;20065;-74
2024/01/29 11:20:23;;;;;;;0.80;0.80;;;7.30;99.90;;;;;;5134229;28;20465;-70
2024/01/29 11:22:59;;;;;;;0.80;0.80;;;7.20;99.90;;;;;;5134027;28;20043;-72
2024/01/29 11:25:29;;;;;;;0.80;0.80;;;8.00;99.90;;;;;;5134010;28;20058;-73
2024/01/29 11:27:56;;;;;;;0.82;0.82;;;7.40;99.90;;;;;;5134351;28;20042;-68
2024/01/29 11:30:24;;;;;;;0.80;0.80;;;7.40;99.90;;;;;;5134447;27;20074;-71
2024/01/29 11:32:51;;;;;;;0.70;0.70;;;7.50;99.90;;;;;;5138900;27;20038;-73
2024/01/29 11:35:18;;;;;;;0.90;0.90;;;7.60;99.90;;;;;;5133861;27;20084;-74
2024/01/29 11:37:44;;;;;;;0.80;0.80;;;7.70;99.90;;;;;;5152437;27;20409;-72
2024/01/29 11:40:34;;;;;;;0.70;0.70;;;8.10;99.90;;;;;;5157725;27;20039;-70
2024/01/29 11:43:24;;;;;;;0.70;0.70;;;7.80;99.90;;;;;;5158301;27;20042;-71
2024/01/29 11:45:50;;;;;;;1.00;1.00;;;8.00;99.90;;;;;;5145271;27;20051;-74
2024/01/29 11:48:18;;;;;;;0.70;0.70;;;8.00;99.90;;;;;;5157783;27;20043;-73
2024/01/29 11:50:46;;;;;;;1.15;1.05;;;8.00;99.90;;;;;;5158158;27;20280;-73
2024/01/29 11:53:16;;;;;;;0.70;0.70;;;8.30;99.90;;;;;;5158219;27;20110;-74
2024/01/29 11:55:43;;;;;;;0.90;0.90;;;8.30;99.90;;;;;;5158387;27;20423;-74
2024/01/29 11:58:16;;;;;;;0.98;0.98;;;8.20;99.90;;;;;;5158080;27;20506;-71
2024/01/29 12:00:43;;;;;;;2.05;1.90;;;8.30;99.90;;;;;;5157999;27;20035;-72
2024/01/29 12:03:11;;;;;;;0.95;0.90;;;8.40;99.90;;;;;;5157957;27;20034;-73
2024/01/29 12:05:37;;;;;;;0.80;0.80;;;8.40;99.90;;;;;;5157919;27;20038;-71
2024/01/29 12:08:03;;;;;;;1.40;1.30;;;9.00;99.90;;;;;;5157787;27;20078;-72
2024/01/29 12:10:29;;;;;;;4.50;1.43;;;8.50;99.90;;;;;;5158047;27;20043;-73
2024/01/29 12:12:55;;;;;;;0.70;0.70;;;8.50;99.90;;;;;;5157768;27;20039;-74
2024/01/29 12:15:20;;;;;;;0.80;0.80;;;8.60;99.90;;;;;;5157475;27;20134;-73
2024/01/29 12:17:48;;;;;;;0.80;0.80;;;8.60;99.90;;;;;;5157534;27;20037;-72
2024/01/29 12:20:14;;;;;;;1.00;1.00;;;8.60;99.90;;;;;;5157536;27;20105;-75
2024/01/29 12:22:41;;;;;;;0.90;0.90;;;8.70;99.90;;;;;;5157607;27;20086;-70
2024/01/29 12:25:08;;;;;;;;;;;8.80;99.90;;;;;;5157863;27;20047;-73
2024/01/29 12:27:34;;;;;;;0.70;0.70;;;8.80;99.90;;;;;;5157490;27;19971;-73
2024/01/29 12:30:04;;;;;;;1.15;1.08;;;8.80;99.90;;;;;;5157304;27;20102;-74
2024/01/29 12:32:32;;;;;;;0.80;0.80;;;8.90;99.90;;;;;;5157628;27;20459;-72
2024/01/29 12:34:59;;;;;;;0.95;0.95;;;8.90;99.90;;;;;;5157094;27;20102;-74
2024/01/29 12:37:25;;;;;;;1.08;1.02;;;8.90;99.90;;;;;;5157295;27;20053;-72
2024/01/29 12:39:55;;;;;;;0.85;0.85;;;8.90;99.90;;;;;;5157356;27;20046;-71
2024/01/29 12:42:22;;;;;;;0.80;0.80;;;8.90;99.90;;;;;;5157227;27;20046;-73
2024/01/29 12:44:50;;;;;;;0.80;0.80;;;9.30;99.90;;;;;;5155701;27;20035;-73
2024/01/29 12:47:18;;;;;;;0.77;0.77;;;9.00;99.90;;;;;;5149679;27;20079;-70
2024/01/29 12:49:46;;;;;;;1.05;0.95;;;9.00;99.90;;;;;;5136471;27;20043;-73
2024/01/29 12:52:11;;;;;;;1.08;1.08;;;8.90;99.90;;;;;;5151858;27;20054;-74